createdAt,value
2019-01-03T21:29:54.147Z,5.20
2019-01-03T21:32:24.683Z,6.43
2019-01-03T21:34:55.401Z,5.20
2019-01-03T21:37:26.013Z,5.80
2019-01-03T21:39:56.634Z,6.23
2019-01-03T21:42:27.437Z,5.77
2019-01-03T21:44:58.635Z,6.17
2019-01-03T21:47:29.124Z,6.67
2019-01-03T21:49:59.775Z,6.63
2019-01-03T21:52:30.263Z,5.73
2019-01-03T21:55:03.196Z,5.97
2019-01-03T21:57:33.704Z,8.10
2019-01-03T22:00:04.426Z,5.50
2019-01-03T22:02:34.908Z,5.10
2019-01-03T22:05:05.959Z,6.30
2019-01-03T22:07:36.401Z,5.63
2019-01-03T22:10:09.115Z,4.90
2019-01-03T22:12:39.576Z,5.30
2019-01-03T22:15:11.205Z,6.00
2019-01-03T22:17:41.666Z,5.30
2019-01-03T22:20:12.618Z,4.87
2019-01-03T22:22:43.275Z,5.30
2019-01-03T22:25:13.751Z,4.60
2019-01-03T22:27:44.141Z,5.00
2019-01-03T22:30:14.595Z,4.60
2019-01-03T22:32:45.240Z,4.53
2019-01-03T22:35:16.402Z,3.93
2019-01-03T22:37:46.851Z,4.40
2019-01-03T22:40:17.486Z,4.57
2019-01-03T22:42:47.992Z,5.00
2019-01-03T22:45:18.434Z,4.60
2019-01-03T22:47:49.047Z,4.80
2019-01-03T22:50:19.990Z,4.30
2019-01-03T22:52:50.331Z,4.80
2019-01-03T22:55:20.906Z,4.80
2019-01-03T22:57:51.388Z,4.60
2019-01-03T23:00:34.930Z,4.20
2019-01-03T23:03:06.105Z,4.50
2019-01-03T23:05:36.553Z,4.50
2019-01-03T23:08:07.148Z,4.47
2019-01-03T23:10:37.646Z,4.70
2019-01-03T23:13:08.212Z,4.30
2019-01-03T23:15:38.638Z,4.00
2019-01-03T23:18:09.102Z,4.10
2019-01-03T23:20:39.545Z,4.43
2019-01-03T23:23:09.990Z,4.50
2019-01-03T23:25:40.376Z,4.17
2019-01-03T23:28:10.790Z,3.70
2019-01-03T23:30:41.331Z,4.47
2019-01-03T23:33:11.771Z,4.23
2019-01-03T23:35:42.229Z,4.83
2019-01-03T23:38:12.664Z,4.20
2019-01-03T23:40:43.143Z,4.50
2019-01-03T23:43:13.607Z,4.43
2019-01-03T23:45:44.046Z,5.20
2019-01-03T23:48:14.476Z,4.57
2019-01-03T23:50:44.905Z,4.70
2019-01-03T23:53:15.340Z,4.23
2019-01-03T23:55:53.444Z,3.63
2019-01-03T23:58:23.912Z,3.90
